createdAt,value
2023-03-06T00:00:37.734Z,55.73
2023-03-06T00:03:05.093Z,56.04
2023-03-06T00:05:31.944Z,54.54
2023-03-06T00:07:58.544Z,55.11
2023-03-06T00:10:25.137Z,53.88
2023-03-06T00:12:52.210Z,54.11
2023-03-06T00:15:18.666Z,54.10
2023-03-06T00:17:45.211Z,54.31
2023-03-06T00:20:11.989Z,55.65
2023-03-06T00:22:38.413Z,54.64
2023-03-06T00:25:05.153Z,54.76
2023-03-06T00:27:31.589Z,55.34
2023-03-06T00:29:58.230Z,55.54
2023-03-06T00:32:24.857Z,56.71
2023-03-06T00:34:51.571Z,57.86
2023-03-06T00:37:18.023Z,56.07
2023-03-06T00:39:44.477Z,57.03
2023-03-06T00:42:10.876Z,56.86
2023-03-06T00:44:37.328Z,55.74
2023-03-06T00:47:03.696Z,55.87
2023-03-06T00:49:30.095Z,55.83
2023-03-06T00:51:56.538Z,55.98
2023-03-06T00:54:22.953Z,56.01
2023-03-06T00:56:49.339Z,53.96
2023-03-06T00:59:15.739Z,54.76
2023-03-06T01:01:42.393Z,55.61
2023-03-06T01:04:08.857Z,56.20
2023-03-06T01:06:35.270Z,57.66
2023-03-06T01:09:01.661Z,57.58
2023-03-06T01:11:28.083Z,56.12
2023-03-06T01:13:54.469Z,54.50
2023-03-06T01:16:20.938Z,56.32
2023-03-06T01:18:47.342Z,55.64
2023-03-06T01:21:13.777Z,54.80
2023-03-06T01:23:40.196Z,55.50
2023-03-06T01:26:06.627Z,55.63
2023-03-06T01:28:33.093Z,54.29
2023-03-06T01:30:59.462Z,55.41
2023-03-06T01:33:25.846Z,54.97
2023-03-06T01:35:52.248Z,54.13
2023-03-06T01:38:18.633Z,54.24
2023-03-06T01:40:45.033Z,53.93
2023-03-06T01:43:11.415Z,53.98
2023-03-06T01:45:37.835Z,53.08
2023-03-06T01:48:04.246Z,53.55
2023-03-06T01:50:30.634Z,52.28
2023-03-06T01:52:57.029Z,54.63
2023-03-06T01:55:23.636Z,54.07
2023-03-06T01:57:50.019Z,52.68
2023-03-06T02:00:16.398Z,53.80
2023-03-06T02:02:42.939Z,52.54
2023-03-06T02:05:09.397Z,51.96
2023-03-06T02:07:35.805Z,52.17
2023-03-06T02:10:02.236Z,53.65
2023-03-06T02:12:28.691Z,53.70
2023-03-06T02:14:55.065Z,53.37
2023-03-06T02:17:21.491Z,52.54
2023-03-06T02:19:47.971Z,52.79
2023-03-06T02:22:14.397Z,52.23
2023-03-06T02:24:40.780Z,50.14
2023-03-06T02:27:07.162Z,51.15
2023-03-06T02:29:33.561Z,50.55
2023-03-06T02:32:00.045Z,50.72
2023-03-06T02:34:26.474Z,51.25
2023-03-06T02:36:52.896Z,54.17
2023-03-06T02:39:19.259Z,50.57
2023-03-06T02:41:45.661Z,53.62
2023-03-06T02:44:12.057Z,53.38
2023-03-06T02:46:38.448Z,50.85
2023-03-06T02:49:04.817Z,51.32
2023-03-06T02:51:31.179Z,51.37
2023-03-06T02:53:57.608Z,50.53
2023-03-06T02:56:24.043Z,52.75
2023-03-06T02:58:50.450Z,51.99
2023-03-06T03:01:16.867Z,51.44
2023-03-06T03:03:43.290Z,53.01
2023-03-06T03:06:09.664Z,52.08
2023-03-06T03:08:36.105Z,51.69
2023-03-06T03:11:02.505Z,50.44
2023-03-06T03:13:29.064Z,51.82
2023-03-06T03:15:55.555Z,52.42
2023-03-06T03:18:21.979Z,51.11
2023-03-06T03:20:48.395Z,51.85
2023-03-06T03:23:14.951Z,53.04
2023-03-06T03:25:41.377Z,52.49
2023-03-06T03:28:07.790Z,53.29
2023-03-06T03:30:34.186Z,54.66
2023-03-06T03:33:00.568Z,54.24
2023-03-06T03:35:26.991Z,54.41
2023-03-06T03:37:53.443Z,54.05
2023-03-06T03:40:20.498Z,53.26
2023-03-06T03:42:46.933Z,51.77
2023-03-06T03:45:13.331Z,50.87
2023-03-06T03:47:39.722Z,50.21
2023-03-06T03:50:06.157Z,50.61
2023-03-06T03:52:32.530Z,49.91
2023-03-06T03:54:58.936Z,50.16
2023-03-06T03:57:25.431Z,48.90
2023-03-06T03:59:51.861Z,50.69
2023-03-06T04:02:18.396Z,47.28
2023-03-06T04:04:44.947Z,47.11
2023-03-06T04:07:11.366Z,48.34
2023-03-06T04:09:37.757Z,47.10
2023-03-06T04:12:04.106Z,47.68
2023-03-06T04:14:30.519Z,47.46
2023-03-06T04:16:56.921Z,45.32
2023-03-06T04:19:23.387Z,45.37
2023-03-06T04:21:49.782Z,44.49
2023-03-06T04:24:16.277Z,46.70
2023-03-06T04:26:42.724Z,46.04
2023-03-06T04:29:09.181Z,45.31
2023-03-06T04:31:35.655Z,44.81
2023-03-06T04:34:04.050Z,47.95
2023-03-06T04:36:30.495Z,48.59
2023-03-06T04:38:56.929Z,47.72
2023-03-06T04:41:23.367Z,46.65
2023-03-06T04:43:49.890Z,49.32
2023-03-06T04:46:16.314Z,48.87
2023-03-06T04:48:42.722Z,50.08
2023-03-06T04:51:09.098Z,49.35
2023-03-06T04:53:35.482Z,46.10
2023-03-06T04:56:02.056Z,45.30
2023-03-06T04:58:28.483Z,48.43
2023-03-06T05:00:54.892Z,46.38
2023-03-06T05:03:21.315Z,47.01
2023-03-06T05:05:47.720Z,46.65
2023-03-06T05:08:14.137Z,46.56
2023-03-06T05:10:40.516Z,46.76
2023-03-06T05:13:06.949Z,47.82
2023-03-06T05:15:33.431Z,46.93
2023-03-06T05:17:59.821Z,46.27
2023-03-06T05:20:26.327Z,47.45
2023-03-06T05:22:52.742Z,46.02
2023-03-06T05:25:19.196Z,47.35
2023-03-06T05:27:45.586Z,47.11
2023-03-06T05:30:12.100Z,48.96
2023-03-06T05:32:38.569Z,47.54
2023-03-06T05:35:04.966Z,48.09
2023-03-06T05:37:31.364Z,49.06
2023-03-06T05:39:57.945Z,46.99
2023-03-06T05:42:24.353Z,47.68
2023-03-06T05:44:50.735Z,47.18
2023-03-06T05:47:17.154Z,47.84
2023-03-06T05:49:43.617Z,50.62
2023-03-06T05:52:10.049Z,50.00
2023-03-06T05:54:36.609Z,49.68
2023-03-06T05:57:06.016Z,48.70
2023-03-06T05:59:32.402Z,49.52
2023-03-06T06:01:58.844Z,49.62
2023-03-06T06:04:25.274Z,50.98
2023-03-06T06:06:51.765Z,50.77
2023-03-06T06:09:18.217Z,50.81
2023-03-06T06:11:44.674Z,49.18
2023-03-06T06:14:11.266Z,49.97
2023-03-06T06:16:37.773Z,49.62
2023-03-06T06:19:04.195Z,47.80
2023-03-06T06:21:30.656Z,47.73
2023-03-06T06:23:57.122Z,49.38
2023-03-06T06:26:23.566Z,53.63
2023-03-06T06:28:49.940Z,49.15
2023-03-06T06:31:16.426Z,48.81
2023-03-06T06:33:43.172Z,49.99
2023-03-06T06:36:09.595Z,49.57
2023-03-06T06:38:35.964Z,50.59
2023-03-06T06:41:31.080Z,50.94
2023-03-06T06:43:48.782Z,53.25
2023-03-06T06:46:53.353Z,54.42
2023-03-06T06:49:02.797Z,53.01
2023-03-06T06:51:29.202Z,54.00
2023-03-06T06:53:55.597Z,53.49
2023-03-06T06:56:22.053Z,53.70
2023-03-06T06:58:48.637Z,52.56
2023-03-06T07:01:15.046Z,51.98
2023-03-06T07:03:41.567Z,52.00
2023-03-06T07:06:08.003Z,52.30
2023-03-06T07:08:34.434Z,54.61
2023-03-06T07:11:00.834Z,53.94
2023-03-06T07:13:27.258Z,50.01
2023-03-06T07:15:53.716Z,51.72
2023-03-06T07:18:20.179Z,51.70
2023-03-06T07:20:46.599Z,54.13
2023-03-06T07:23:13.025Z,52.36
2023-03-06T07:25:39.411Z,53.33
2023-03-06T07:28:05.985Z,51.31
2023-03-06T07:30:32.363Z,51.72
2023-03-06T07:32:58.773Z,49.50
2023-03-06T07:35:25.171Z,49.79
2023-03-06T07:37:51.563Z,49.72
2023-03-06T07:40:17.986Z,52.38
2023-03-06T07:42:44.402Z,50.51
2023-03-06T07:45:10.811Z,50.84
2023-03-06T07:47:37.216Z,50.69
2023-03-06T07:50:03.607Z,49.34
2023-03-06T07:52:30.002Z,50.83
2023-03-06T07:54:56.420Z,49.93
2023-03-06T07:57:22.817Z,50.29
2023-03-06T07:59:49.219Z,52.14
2023-03-06T08:02:15.712Z,49.93
2023-03-06T08:04:42.211Z,49.53
2023-03-06T08:07:08.765Z,51.52
2023-03-06T08:09:35.166Z,51.37
2023-03-06T08:12:01.578Z,53.76
2023-03-06T08:14:28.067Z,49.91
2023-03-06T08:16:54.469Z,50.01
2023-03-06T08:19:20.931Z,52.00
2023-03-06T08:21:47.314Z,50.25
2023-03-06T08:24:13.717Z,52.10
2023-03-06T08:26:40.175Z,53.87
2023-03-06T08:29:06.568Z,54.38
2023-03-06T08:31:33.142Z,53.12
2023-03-06T08:33:59.593Z,52.86
2023-03-06T08:36:25.982Z,53.57
2023-03-06T08:38:52.419Z,53.03
2023-03-06T08:41:20.242Z,52.58
2023-03-06T08:43:46.737Z,52.56
2023-03-06T08:46:13.201Z,52.74
2023-03-06T08:48:39.657Z,52.24
2023-03-06T08:51:06.065Z,52.10
2023-03-06T08:53:42.731Z,51.28
2023-03-06T08:56:09.906Z,51.07
2023-03-06T08:58:36.317Z,50.91
2023-03-06T09:01:02.844Z,50.44
2023-03-06T09:03:29.308Z,50.19
2023-03-06T09:05:55.729Z,51.65
2023-03-06T09:08:22.094Z,51.86
2023-03-06T09:10:48.839Z,51.24
2023-03-06T09:13:15.251Z,51.76
2023-03-06T09:15:41.772Z,49.77
2023-03-06T09:18:08.232Z,48.12
2023-03-06T09:20:34.685Z,49.71
2023-03-06T09:23:01.090Z,50.41
2023-03-06T09:25:27.464Z,47.65
2023-03-06T09:28:10.120Z,46.82
2023-03-06T09:30:37.107Z,47.14
2023-03-06T09:33:03.614Z,46.62
2023-03-06T09:35:30.178Z,44.30
2023-03-06T09:37:56.649Z,43.56
2023-03-06T09:40:23.145Z,44.14
2023-03-06T09:42:49.573Z,45.10
2023-03-06T09:45:16.047Z,45.62
2023-03-06T09:47:42.430Z,44.49
2023-03-06T09:50:08.946Z,45.23
2023-03-06T09:52:35.377Z,46.04
2023-03-06T09:55:01.794Z,43.70
2023-03-06T09:57:28.202Z,44.64
2023-03-06T09:59:54.625Z,42.35
2023-03-06T10:02:21.158Z,41.27
2023-03-06T10:04:47.754Z,43.38
2023-03-06T10:07:14.201Z,42.14
2023-03-06T10:09:40.656Z,38.38
2023-03-06T10:12:07.291Z,36.58
2023-03-06T10:14:33.758Z,34.53
2023-03-06T10:17:00.233Z,34.37
2023-03-06T10:19:26.722Z,33.33
2023-03-06T10:21:53.135Z,32.19
2023-03-06T10:24:19.539Z,33.03
2023-03-06T10:26:46.142Z,32.68
2023-03-06T10:29:12.648Z,32.69
2023-03-06T10:31:39.100Z,33.25
2023-03-06T10:34:05.479Z,32.15
2023-03-06T10:36:31.877Z,31.02
2023-03-06T10:38:58.244Z,30.09
2023-03-06T10:41:24.730Z,30.25
2023-03-06T10:43:51.161Z,30.96
2023-03-06T10:46:17.780Z,30.04
2023-03-06T10:48:44.214Z,28.62
2023-03-06T10:51:18.055Z,27.63
2023-03-06T10:53:45.091Z,27.65
2023-03-06T10:56:11.525Z,26.63
2023-03-06T10:58:39.155Z,27.90
2023-03-06T11:01:05.625Z,27.26
2023-03-06T11:03:32.044Z,26.07
2023-03-06T11:05:58.594Z,25.53
2023-03-06T11:08:25.121Z,23.92
2023-03-06T11:10:51.526Z,25.15
2023-03-06T11:13:17.950Z,27.58
2023-03-06T11:15:44.468Z,27.67
2023-03-06T11:18:10.917Z,26.63
2023-03-06T11:20:50.404Z,27.87
2023-03-06T11:23:17.207Z,27.24
2023-03-06T11:25:43.654Z,27.00
2023-03-06T11:28:10.160Z,26.44
2023-03-06T11:30:36.584Z,25.13
2023-03-06T11:33:03.013Z,23.82
2023-03-06T11:35:30.609Z,24.05
2023-03-06T11:37:57.002Z,23.34
2023-03-06T11:40:23.404Z,23.56
2023-03-06T11:42:49.828Z,22.59
2023-03-06T11:45:16.233Z,22.79
2023-03-06T11:47:42.794Z,23.11
2023-03-06T11:50:09.289Z,22.19
2023-03-06T11:52:35.757Z,20.67
2023-03-06T11:55:02.287Z,20.71
2023-03-06T11:57:28.729Z,20.51
2023-03-06T11:59:55.181Z,21.31
2023-03-06T12:02:21.631Z,22.87
2023-03-06T12:04:48.070Z,22.41
2023-03-06T12:07:14.517Z,23.52
2023-03-06T12:09:40.975Z,24.73
2023-03-06T12:12:07.463Z,24.37
2023-03-06T12:14:33.868Z,27.62
2023-03-06T12:17:00.308Z,35.04
2023-03-06T12:19:26.743Z,60.92
2023-03-06T12:21:53.141Z,29.10
2023-03-06T12:24:19.684Z,22.53
2023-03-06T12:26:46.084Z,46.06
2023-03-06T12:29:12.551Z,42.57
2023-03-06T12:31:39.006Z,78.36
2023-03-06T12:34:05.443Z,29.91
2023-03-06T12:36:32.054Z,49.13
2023-03-06T12:38:58.467Z,24.84
2023-03-06T12:41:24.917Z,21.99
2023-03-06T12:43:51.406Z,22.18
2023-03-06T12:46:17.896Z,22.61
2023-03-06T12:48:44.524Z,23.43
2023-03-06T12:51:11.002Z,22.24
2023-03-06T12:53:37.409Z,21.46
2023-03-06T12:56:03.932Z,19.96
2023-03-06T12:58:30.381Z,18.30
2023-03-06T13:01:03.538Z,19.84
2023-03-06T13:03:30.716Z,21.06
2023-03-06T13:05:57.306Z,21.32
2023-03-06T13:08:23.836Z,21.58
2023-03-06T13:10:50.532Z,20.75
2023-03-06T13:13:16.957Z,21.52
2023-03-06T13:15:43.405Z,22.09
2023-03-06T13:18:09.818Z,19.49
2023-03-06T13:20:36.302Z,19.11
2023-03-06T13:23:02.756Z,18.31
2023-03-06T13:25:29.215Z,17.66
2023-03-06T13:27:55.691Z,19.13
2023-03-06T13:30:22.130Z,21.02
2023-03-06T13:32:48.522Z,19.74
2023-03-06T13:35:14.922Z,19.35
2023-03-06T13:37:41.326Z,18.94
2023-03-06T13:40:07.764Z,20.33
2023-03-06T13:42:34.168Z,19.57
2023-03-06T13:45:00.612Z,19.24
2023-03-06T13:47:26.991Z,18.40
2023-03-06T13:49:53.398Z,18.57
2023-03-06T13:52:19.999Z,18.78
2023-03-06T13:54:46.420Z,17.71
2023-03-06T13:57:12.903Z,18.85
2023-03-06T13:59:39.345Z,19.53
2023-03-06T14:02:05.729Z,20.15
2023-03-06T14:04:32.271Z,19.47
2023-03-06T14:06:58.708Z,19.23
2023-03-06T14:09:25.176Z,19.81
2023-03-06T14:11:51.619Z,20.15
2023-03-06T14:14:18.073Z,18.98
2023-03-06T14:16:50.203Z,18.64
2023-03-06T14:19:17.031Z,18.61
2023-03-06T14:21:43.496Z,19.40
2023-03-06T14:24:09.884Z,19.43
2023-03-06T14:26:36.401Z,18.77
2023-03-06T14:29:02.829Z,17.97
2023-03-06T14:31:29.297Z,18.18
2023-03-06T14:33:55.768Z,18.44
2023-03-06T14:36:22.230Z,18.26
2023-03-06T14:38:48.680Z,17.97
2023-03-06T14:41:15.128Z,17.38
2023-03-06T14:43:41.555Z,16.50
2023-03-06T14:46:08.238Z,17.55
2023-03-06T14:48:34.645Z,15.83
2023-03-06T14:51:01.017Z,16.26
2023-03-06T14:53:27.411Z,17.27
2023-03-06T14:55:53.922Z,17.35
2023-03-06T14:58:20.442Z,17.29
2023-03-06T15:00:46.944Z,17.53
2023-03-06T15:03:13.365Z,17.37
2023-03-06T15:05:39.742Z,17.00
2023-03-06T15:08:06.182Z,17.43
2023-03-06T15:10:32.651Z,17.03
2023-03-06T15:12:59.052Z,18.87
2023-03-06T15:15:25.677Z,17.47
2023-03-06T15:17:52.054Z,17.46
2023-03-06T15:20:18.475Z,18.09
2023-03-06T15:22:44.852Z,16.86
2023-03-06T15:25:11.673Z,17.04
2023-03-06T15:27:38.127Z,17.18
2023-03-06T15:30:04.592Z,16.51
2023-03-06T15:32:31.070Z,17.33
2023-03-06T15:34:57.637Z,16.26
2023-03-06T15:37:24.397Z,16.22
2023-03-06T15:39:50.891Z,16.51
2023-03-06T15:42:17.276Z,16.98
2023-03-06T15:44:43.704Z,16.33
2023-03-06T15:47:10.139Z,16.71
2023-03-06T15:49:36.642Z,16.29
2023-03-06T15:52:03.109Z,15.28
2023-03-06T15:54:31.870Z,15.57
2023-03-06T15:56:59.270Z,15.27
2023-03-06T15:59:25.678Z,14.92
2023-03-06T16:01:52.495Z,14.47
2023-03-06T16:04:19.001Z,14.12
2023-03-06T16:06:45.683Z,14.39
2023-03-06T16:09:12.309Z,15.10
2023-03-06T16:11:43.959Z,15.46
2023-03-06T16:14:11.516Z,15.24
2023-03-06T16:16:38.018Z,14.76
2023-03-06T16:19:06.049Z,14.73
2023-03-06T16:21:34.321Z,14.45
2023-03-06T16:24:01.136Z,14.11
2023-03-06T16:26:30.145Z,13.92
2023-03-06T16:28:56.561Z,13.42
2023-03-06T16:31:23.110Z,13.85
2023-03-06T16:33:49.826Z,13.93
2023-03-06T16:36:16.301Z,13.59
2023-03-06T16:38:43.209Z,14.62
2023-03-06T16:41:09.761Z,15.33
2023-03-06T16:43:36.139Z,13.93
2023-03-06T16:46:02.764Z,13.87
2023-03-06T16:48:29.213Z,14.04
2023-03-06T16:50:55.624Z,13.69
2023-03-06T16:53:22.027Z,14.82
2023-03-06T16:55:48.550Z,13.68
2023-03-06T16:58:14.969Z,14.32
2023-03-06T17:00:41.624Z,14.50
2023-03-06T17:03:08.045Z,13.46
2023-03-06T17:05:34.689Z,13.85
2023-03-06T17:08:01.144Z,13.06
2023-03-06T17:10:27.542Z,13.35
2023-03-06T17:12:54.000Z,13.79
2023-03-06T17:15:20.427Z,14.34
2023-03-06T17:17:46.992Z,13.88
2023-03-06T17:20:13.402Z,13.63
2023-03-06T17:22:39.811Z,13.51
2023-03-06T17:25:06.220Z,14.41
2023-03-06T17:27:32.772Z,13.58
2023-03-06T17:29:59.466Z,13.94
2023-03-06T17:32:26.055Z,13.55
2023-03-06T17:34:52.452Z,14.16
2023-03-06T17:37:18.856Z,13.85
2023-03-06T17:39:45.385Z,13.51
2023-03-06T17:42:11.794Z,13.56
2023-03-06T17:44:38.190Z,13.34
2023-03-06T17:47:04.782Z,14.02
2023-03-06T17:49:31.390Z,14.20
2023-03-06T17:51:57.871Z,14.17
2023-03-06T17:54:24.261Z,14.14
2023-03-06T17:56:50.828Z,14.00
2023-03-06T17:59:17.215Z,14.15
2023-03-06T18:01:43.782Z,14.23
2023-03-06T18:04:10.196Z,14.87
2023-03-06T18:06:36.602Z,13.59
2023-03-06T18:09:03.189Z,14.01
2023-03-06T18:11:29.627Z,13.37
2023-03-06T18:13:56.065Z,13.85
2023-03-06T18:16:22.775Z,14.92
2023-03-06T18:18:49.289Z,13.12
2023-03-06T18:21:15.807Z,14.08
2023-03-06T18:23:42.227Z,14.37
2023-03-06T18:26:09.865Z,13.92
2023-03-06T18:28:36.349Z,13.80
2023-03-06T18:31:02.970Z,13.40
2023-03-06T18:33:29.546Z,14.05
2023-03-06T18:35:56.279Z,13.83
2023-03-06T18:38:22.910Z,13.90
2023-03-06T18:40:49.399Z,14.20
2023-03-06T18:43:15.848Z,13.86
2023-03-06T18:45:42.540Z,14.69
2023-03-06T18:48:09.165Z,15.22
2023-03-06T18:50:35.970Z,15.47
2023-03-06T18:53:02.497Z,16.21
2023-03-06T18:55:30.250Z,17.47
2023-03-06T18:57:56.775Z,18.57
2023-03-06T19:00:23.692Z,19.23
2023-03-06T19:02:50.111Z,19.85
2023-03-06T19:05:16.787Z,21.49
2023-03-06T19:07:43.596Z,20.18
2023-03-06T19:10:10.073Z,19.32
2023-03-06T19:12:36.628Z,18.88
2023-03-06T19:15:03.116Z,18.03
2023-03-06T19:17:29.494Z,18.32
2023-03-06T19:19:55.924Z,19.09
2023-03-06T19:22:22.376Z,19.85
2023-03-06T19:24:48.796Z,19.89
2023-03-06T19:27:15.320Z,19.13
2023-03-06T19:29:41.940Z,19.48
2023-03-06T19:32:08.457Z,19.04
2023-03-06T19:34:37.389Z,18.92
2023-03-06T19:37:04.042Z,19.39
2023-03-06T19:39:30.613Z,19.93
2023-03-06T19:41:57.031Z,18.80
2023-03-06T19:44:23.524Z,19.86
2023-03-06T19:46:53.182Z,20.72
2023-03-06T19:49:19.662Z,19.19
2023-03-06T19:51:53.392Z,19.31
2023-03-06T19:54:20.074Z,19.73
2023-03-06T19:56:46.627Z,20.67
2023-03-06T19:59:15.778Z,22.57
2023-03-06T20:01:42.254Z,22.42
2023-03-06T20:04:08.772Z,22.56
2023-03-06T20:06:35.546Z,19.55
2023-03-06T20:09:02.218Z,19.11
2023-03-06T20:11:29.015Z,19.19
2023-03-06T20:13:55.734Z,20.67
2023-03-06T20:16:24.897Z,19.78
2023-03-06T20:18:51.781Z,19.74
2023-03-06T20:21:18.672Z,19.92
2023-03-06T20:23:45.618Z,20.15
2023-03-06T20:26:12.082Z,24.92
2023-03-06T20:28:39.325Z,248.95
2023-03-06T20:31:05.946Z,193.03
2023-03-06T20:33:33.248Z,54.31
2023-03-06T20:36:02.664Z,22.95
2023-03-06T20:38:29.144Z,22.00
2023-03-06T20:40:55.991Z,20.43
2023-03-06T20:43:22.500Z,20.40
2023-03-06T20:45:49.243Z,20.65
2023-03-06T20:48:16.158Z,20.55
2023-03-06T20:50:42.879Z,21.86
2023-03-06T20:53:09.458Z,21.57
2023-03-06T20:55:37.643Z,20.58
2023-03-06T20:58:08.808Z,20.32
2023-03-06T21:00:36.181Z,21.19
2023-03-06T21:03:02.733Z,20.71
2023-03-06T21:05:29.538Z,20.62
2023-03-06T21:07:56.220Z,19.90
2023-03-06T21:10:22.630Z,19.94
2023-03-06T21:12:54.207Z,19.96
2023-03-06T21:15:20.590Z,19.40
2023-03-06T21:17:47.072Z,19.26
2023-03-06T21:20:13.986Z,19.62
2023-03-06T21:22:40.703Z,19.85
2023-03-06T21:25:07.174Z,20.54
2023-03-06T21:27:33.938Z,20.00
2023-03-06T21:30:00.359Z,19.87
2023-03-06T21:32:26.957Z,19.58
2023-03-06T21:34:53.585Z,19.31
2023-03-06T21:37:20.322Z,19.37
2023-03-06T21:39:46.742Z,19.55
2023-03-06T21:42:16.087Z,19.13
2023-03-06T21:44:42.903Z,19.20
2023-03-06T21:47:09.423Z,19.29
2023-03-06T21:49:36.310Z,19.18
2023-03-06T21:52:02.935Z,19.25
2023-03-06T21:54:29.423Z,19.11
2023-03-06T21:56:57.401Z,18.79
2023-03-06T21:59:23.843Z,18.44
2023-03-06T22:01:50.609Z,19.86
2023-03-06T22:04:23.146Z,19.62
2023-03-06T22:06:49.751Z,18.79
2023-03-06T22:09:16.975Z,18.50
2023-03-06T22:11:43.954Z,19.35
2023-03-06T22:14:10.640Z,19.49
2023-03-06T22:16:37.528Z,19.30
2023-03-06T22:19:04.265Z,19.16
2023-03-06T22:21:30.780Z,19.08
2023-03-06T22:23:57.552Z,19.84
2023-03-06T22:26:24.271Z,19.56
2023-03-06T22:28:50.896Z,18.49
2023-03-06T22:31:17.355Z,19.88
2023-03-06T22:33:44.260Z,19.89
2023-03-06T22:36:11.027Z,19.28
2023-03-06T22:38:37.551Z,18.87
2023-03-06T22:41:06.212Z,21.07
2023-03-06T22:43:41.460Z,26.23
2023-03-06T22:46:07.935Z,21.88
2023-03-06T22:48:37.722Z,19.19
2023-03-06T22:51:04.421Z,20.28
2023-03-06T22:53:30.859Z,21.92
2023-03-06T22:56:01.985Z,23.36
2023-03-06T22:58:28.509Z,24.40
2023-03-06T23:00:54.949Z,25.37
2023-03-06T23:03:23.749Z,24.85
2023-03-06T23:05:50.175Z,23.88
2023-03-06T23:08:16.683Z,24.44
2023-03-06T23:10:43.079Z,28.75
2023-03-06T23:13:09.591Z,25.74
2023-03-06T23:15:36.001Z,25.39
2023-03-06T23:18:02.504Z,26.00
2023-03-06T23:20:28.919Z,25.30
2023-03-06T23:22:55.665Z,24.21
2023-03-06T23:25:22.076Z,29.63
2023-03-06T23:27:48.483Z,24.72
2023-03-06T23:30:14.891Z,26.55
2023-03-06T23:32:41.357Z,27.20
2023-03-06T23:35:07.738Z,22.43
2023-03-06T23:37:34.134Z,21.96
2023-03-06T23:40:00.617Z,22.69
2023-03-06T23:42:27.061Z,21.89
2023-03-06T23:44:53.487Z,22.32
2023-03-06T23:47:19.883Z,20.50
2023-03-06T23:49:46.308Z,21.57
2023-03-06T23:52:12.718Z,22.36
2023-03-06T23:54:39.114Z,19.87
2023-03-06T23:57:05.549Z,19.47
2023-03-06T23:59:31.947Z,20.00
